Time,TemperatureF,DewpointF,PressureIn,WindDirection,WindDirectionDegrees,WindSpeedMPH,WindSpeedGustMPH,Humidity,HourlyPrecipIn,Conditions,Clouds,dailyrainin,SolarRadiationWatts/m^2,SoftwareType,DateUTC
2013-08-23 00:00:00,74.6,70.8,30.02,WSW,241,0.0,0.0,88,0.00,,,0.00,0,Wunderground v.1.15,2013-08-23 04:00:00,
2013-08-23 00:02:00,74.6,70.8,30.02,WSW,241,0.0,0.0,88,0.00,,,0.00,0,Wunderground v.1.15,2013-08-23 04:02:00,
2013-08-23 00:04:00,74.4,70.6,30.02,WSW,241,0.0,0.0,88,0.00,,,0.00,0,Wunderground v.1.15,2013-08-23 04:04:00,
2013-08-23 00:06:00,74.4,70.6,30.02,WSW,241,0.0,0.0,88,0.00,,,0.00,0,Wunderground v.1.15,2013-08-23 04:06:00,
2013-08-23 00:12:00,74.2,70.4,30.02,WSW,241,0.0,0.0,88,0.00,,,0.00,0,Wunderground v.1.15,2013-08-23 04:12:00,
2013-08-23 00:18:00,74.0,70.2,30.01,WSW,241,0.0,0.0,88,0.00,,,0.00,0,Wunderground v.1.15,2013-08-23 04:18:00,
2013-08-23 00:20:00,74.0,70.6,30.01,WSW,241,0.0,0.0,89,0.00,,,0.00,0,Wunderground v.1.15,2013-08-23 04:20:00,
2013-08-23 00:26:00,73.9,70.5,30.01,WSW,241,0.0,0.0,89,0.00,,,0.00,0,Wunderground v.1.15,2013-08-23 04:26:00,
2013-08-23 00:32:00,73.9,70.5,30.01,WSW,241,0.0,1.0,89,0.00,,,0.00,0,Wunderground v.1.15,2013-08-23 04:32:00,
2013-08-23 00:38:00,73.7,70.6,30.01,West,264,1.0,2.0,90,0.00,,,0.00,0,Wunderground v.1.15,2013-08-23 04:38:00,
2013-08-23 00:44:00,73.7,70.9,30.01,West,260,2.0,3.0,91,0.00,,,0.00,0,Wunderground v.1.15,2013-08-23 04:44:00,
2013-08-23 00:50:00,73.7,70.9,30.00,West,261,1.0,1.0,91,0.00,,,0.00,0,Wunderground v.1.15,2013-08-23 04:50:00,
2013-08-23 00:56:00,73.7,70.9,30.00,West,261,0.0,1.0,91,0.00,,,0.00,0,Wunderground v.1.15,2013-08-23 04:56:00,
2013-08-23 01:02:00,73.7,71.2,29.99,West,261,0.0,2.0,92,0.00,,,0.00,0,Wunderground v.1.15,2013-08-23 05:02:00,
2013-08-23 01:08:00,73.7,71.2,29.99,WNW,285,1.0,2.0,92,0.00,,,0.00,0,Wunderground v.1.15,2013-08-23 05:08:00,
2013-08-23 01:14:00,73.7,71.5,29.99,WNW,299,1.0,2.0,93,0.00,,,0.00,0,Wunderground v.1.15,2013-08-23 05:14:00,
2013-08-23 01:20:00,73.9,71.7,29.99,West,260,1.0,2.0,93,0.00,,,0.00,0,Wunderground v.1.15,2013-08-23 05:20:00,
2013-08-23 01:26:00,73.9,71.7,29.99,NNW,335,1.0,2.0,93,0.00,,,0.00,0,Wunderground v.1.15,2013-08-23 05:26:00,
2013-08-23 01:32:00,74.0,71.8,29.99,NNW,330,2.0,3.0,93,0.00,,,0.00,0,Wunderground v.1.15,2013-08-23 05:32:00,
2013-08-23 01:38:00,74.0,71.8,29.99,North,356,2.0,4.0,93,0.00,,,0.00,0,Wunderground v.1.15,2013-08-23 05:38:00,
2013-08-23 01:44:00,74.2,72.0,29.99,West,278,2.0,3.0,93,0.00,,,0.00,0,Wunderground v.1.15,2013-08-23 05:44:00,
2013-08-23 01:50:00,74.4,72.2,29.98,WNW,282,2.0,5.0,93,0.00,,,0.00,0,Wunderground v.1.15,2013-08-23 05:50:00,
2013-08-23 01:56:00,74.4,72.2,29.98,SW,236,2.0,5.0,93,0.00,,,0.00,0,Wunderground v.1.15,2013-08-23 05:56:00,
2013-08-23 02:02:00,74.4,72.2,29.97,NW,323,2.0,2.0,93,0.00,,,0.00,0,Wunderground v.1.15,2013-08-23 06:02:00,
2013-08-23 02:08:00,74.4,72.2,29.97,NNW,330,1.0,2.0,93,0.00,,,0.00,0,Wunderground v.1.15,2013-08-23 06:08:00,
2013-08-23 02:14:00,74.6,72.4,29.97,NNW,337,1.0,2.0,93,0.00,,,0.00,0,Wunderground v.1.15,2013-08-23 06:14:00,
2013-08-23 02:20:00,74.4,72.2,29.97,NNW,337,1.0,1.0,93,0.00,,,0.00,0,Wunderground v.1.15,2013-08-23 06:20:00,
2013-08-23 02:26:00,74.4,72.2,29.97,NNW,332,1.0,3.0,93,0.00,,,0.00,0,Wunderground v.1.15,2013-08-23 06:26:00,
2013-08-23 02:32:00,74.4,72.2,29.96,NW,316,1.0,2.0,93,0.00,,,0.00,0,Wunderground v.1.15,2013-08-23 06:32:00,
2013-08-23 02:38:00,74.2,72.0,29.96,NW,316,1.0,2.0,93,0.00,,,0.00,0,Wunderground v.1.15,2013-08-23 06:38:00,
2013-08-23 02:44:00,74.2,72.0,29.96,NW,316,0.0,0.0,93,0.00,,,0.00,0,Wunderground v.1.15,2013-08-23 06:44:00,
2013-08-23 02:50:00,74.0,71.8,29.95,NW,316,0.0,0.0,93,0.00,,,0.00,0,Wunderground v.1.15,2013-08-23 06:50:00,
2013-08-23 02:56:00,73.9,71.7,29.95,NW,316,0.0,0.0,93,0.00,,,0.00,0,Wunderground v.1.15,2013-08-23 06:56:00,
2013-08-23 03:02:00,73.9,71.7,29.95,NW,316,0.0,2.0,93,0.00,,,0.00,0,Wunderground v.1.15,2013-08-23 07:02:00,
2013-08-23 03:08:00,73.7,71.5,29.95,NW,316,1.0,2.0,93,0.00,,,0.00,0,Wunderground v.1.15,2013-08-23 07:08:00,
2013-08-23 03:14:00,73.5,71.4,29.95,NW,316,0.0,1.0,93,0.00,,,0.00,0,Wunderground v.1.15,2013-08-23 07:14:00,
2013-08-23 03:20:00,73.3,71.5,29.95,NW,316,0.0,0.0,94,0.00,,,0.00,0,Wunderground v.1.15,2013-08-23 07:20:00,
2013-08-23 03:26:00,73.2,71.4,29.95,NW,316,0.0,0.0,94,0.00,,,0.00,0,Wunderground v.1.15,2013-08-23 07:26:00,
2013-08-23 03:32:00,73.2,71.4,29.94,NW,316,0.0,0.0,94,0.00,,,0.00,0,Wunderground v.1.15,2013-08-23 07:32:00,
2013-08-23 03:38:00,73.0,71.2,29.94,NW,316,0.0,0.0,94,0.00,,,0.00,0,Wunderground v.1.15,2013-08-23 07:38:00,
2013-08-23 03:44:00,72.8,71.0,29.94,NW,316,0.0,0.0,94,0.00,,,0.00,0,Wunderground v.1.15,2013-08-23 07:44:00,
2013-08-23 03:50:00,72.7,70.9,29.95,NW,316,0.0,0.0,94,0.00,,,0.00,0,Wunderground v.1.15,2013-08-23 07:50:00,
2013-08-23 03:56:00,72.7,71.2,29.95,NW,316,0.0,0.0,95,0.00,,,0.00,0,Wunderground v.1.15,2013-08-23 07:56:00,
2013-08-23 04:02:00,72.5,71.0,29.95,NW,316,0.0,0.0,95,0.00,,,0.00,0,Wunderground v.1.15,2013-08-23 08:02:00,
2013-08-23 04:08:00,72.5,71.0,29.95,NW,316,0.0,0.0,95,0.00,,,0.00,0,Wunderground v.1.15,2013-08-23 08:08:00,
2013-08-23 04:14:00,72.5,71.0,29.95,SSW,208,0.0,1.0,95,0.00,,,0.00,0,Wunderground v.1.15,2013-08-23 08:14:00,
2013-08-23 04:20:00,72.3,70.8,29.95,SSW,208,0.0,0.0,95,0.00,,,0.00,0,Wunderground v.1.15,2013-08-23 08:20:00,
2013-08-23 04:26:00,72.3,71.1,29.95,SSW,208,0.0,0.0,96,0.00,,,0.00,0,Wunderground v.1.15,2013-08-23 08:26:00,
2013-08-23 04:32:00,72.1,70.9,29.95,SSW,208,0.0,0.0,96,0.00,,,0.00,0,Wunderground v.1.15,2013-08-23 08:32:00,
2013-08-23 04:38:00,72.0,70.8,29.95,SSW,208,0.0,0.0,96,0.00,,,0.00,0,Wunderground v.1.15,2013-08-23 08:38:00,
2013-08-23 04:44:00,72.0,70.8,29.95,SSW,208,0.0,1.0,96,0.00,,,0.00,0,Wunderground v.1.15,2013-08-23 08:44:00,
2013-08-23 04:51:00,71.8,70.6,29.96,SSW,208,0.0,0.0,96,0.00,,,0.00,0,Wunderground v.1.15,2013-08-23 08:51:00,
2013-08-23 04:56:00,71.6,70.4,29.96,SSW,208,0.0,0.0,96,0.00,,,0.00,0,Wunderground v.1.15,2013-08-23 08:56:00,
2013-08-23 05:02:00,71.6,70.4,29.96,SSW,208,0.0,0.0,96,0.00,,,0.00,0,Wunderground v.1.15,2013-08-23 09:02:00,
2013-08-23 05:08:00,71.6,70.7,29.96,SSW,208,0.0,1.0,97,0.00,,,0.00,0,Wunderground v.1.15,2013-08-23 09:08:00,
2013-08-23 05:14:00,71.6,70.7,29.96,SSW,208,1.0,2.0,97,0.00,,,0.00,0,Wunderground v.1.15,2013-08-23 09:14:00,
2013-08-23 05:20:00,71.6,70.7,29.96,SW,217,1.0,2.0,97,0.00,,,0.00,0,Wunderground v.1.15,2013-08-23 09:20:00,
2013-08-23 05:26:00,71.6,70.7,29.96,SW,217,2.0,2.0,97,0.00,,,0.00,0,Wunderground v.1.15,2013-08-23 09:26:00,
2013-08-23 05:32:00,71.5,70.6,29.96,SW,217,1.0,1.0,97,0.00,,,0.00,0,Wunderground v.1.15,2013-08-23 09:32:00,
2013-08-23 05:38:00,71.5,70.6,29.96,SW,217,0.0,3.0,97,0.00,,,0.00,0,Wunderground v.1.15,2013-08-23 09:38:00,
2013-08-23 05:44:00,71.3,70.4,29.96,SW,217,0.0,0.0,97,0.00,,,0.00,0,Wunderground v.1.15,2013-08-23 09:44:00,
2013-08-23 05:50:00,71.3,70.4,29.96,SW,217,0.0,0.0,97,0.00,,,0.00,0,Wunderground v.1.15,2013-08-23 09:50:00,
2013-08-23 05:56:00,71.1,70.2,29.96,SW,217,0.0,0.0,97,0.00,,,0.00,0,Wunderground v.1.15,2013-08-23 09:56:00,
2013-08-23 06:02:00,70.9,70.0,29.97,SW,217,0.0,0.0,97,0.00,,,0.00,0,Wunderground v.1.15,2013-08-23 10:02:00,
2013-08-23 06:08:00,70.9,70.0,29.97,SW,217,0.0,1.0,97,0.00,,,0.00,0,Wunderground v.1.15,2013-08-23 10:08:00,
2013-08-23 06:14:00,70.8,69.9,29.97,SW,217,0.0,0.0,97,0.00,,,0.00,0,Wunderground v.1.15,2013-08-23 10:14:00,
2013-08-23 06:21:00,70.6,69.7,29.98,SW,217,0.0,0.0,97,0.00,,,0.00,0,Wunderground v.1.15,2013-08-23 10:21:00,
2013-08-23 06:26:00,70.4,69.5,29.98,SW,217,0.0,0.0,97,0.00,,,0.00,0,Wunderground v.1.15,2013-08-23 10:26:00,
2013-08-23 06:32:00,70.3,69.4,29.98,SW,217,0.0,0.0,97,0.00,,,0.00,0,Wunderground v.1.15,2013-08-23 10:32:00,
2013-08-23 06:38:00,70.3,69.4,29.98,SW,217,0.0,0.0,97,0.00,,,0.00,0,Wunderground v.1.15,2013-08-23 10:38:00,
2013-08-23 06:44:00,70.3,69.7,29.98,SW,217,0.0,0.0,98,0.00,,,0.00,5,Wunderground v.1.15,2013-08-23 10:44:00,
2013-08-23 06:50:00,70.1,69.5,29.98,SW,217,0.0,0.0,98,0.00,,,0.00,9,Wunderground v.1.15,2013-08-23 10:50:00,
2013-08-23 06:56:00,70.1,69.5,29.98,SW,217,0.0,0.0,98,0.00,,,0.00,11,Wunderground v.1.15,2013-08-23 10:56:00,
2013-08-23 07:02:00,70.1,69.5,29.99,SW,217,0.0,0.0,98,0.00,,,0.00,19,Wunderground v.1.15,2013-08-23 11:02:00,
2013-08-23 07:08:00,70.1,69.5,29.99,SW,217,0.0,0.0,98,0.00,,,0.00,25,Wunderground v.1.15,2013-08-23 11:08:00,
2013-08-23 07:14:00,70.1,69.5,29.99,SW,217,0.0,0.0,98,0.00,,,0.00,28,Wunderground v.1.15,2013-08-23 11:14:00,
2013-08-23 07:20:00,70.3,69.7,29.99,SW,217,0.0,0.0,98,0.00,,,0.00,35,Wunderground v.1.15,2013-08-23 11:20:00,
2013-08-23 07:26:00,70.4,69.8,29.99,SW,217,0.0,2.0,98,0.00,,,0.00,39,Wunderground v.1.15,2013-08-23 11:26:00,
2013-08-23 07:32:00,70.6,70.0,29.99,SW,217,1.0,2.0,98,0.00,,,0.00,46,Wunderground v.1.15,2013-08-23 11:32:00,
2013-08-23 07:38:00,70.9,70.3,29.99,SW,217,1.0,4.0,98,0.00,,,0.00,49,Wunderground v.1.15,2013-08-23 11:38:00,
2013-08-23 07:44:00,71.1,70.5,29.99,SW,217,1.0,2.0,98,0.00,,,0.00,53,Wunderground v.1.15,2013-08-23 11:44:00,
2013-08-23 07:50:00,71.5,71.2,30.00,West,272,1.0,2.0,99,0.00,,,0.00,65,Wunderground v.1.15,2013-08-23 11:50:00,
2013-08-23 07:56:00,71.6,71.3,30.00,WSW,256,2.0,4.0,99,0.00,,,0.00,74,Wunderground v.1.15,2013-08-23 11:56:00,
2013-08-23 08:02:00,71.6,71.0,30.00,WSW,256,2.0,2.0,98,0.00,,,0.00,132,Wunderground v.1.15,2013-08-23 12:02:00,
2013-08-23 08:08:00,71.6,71.0,30.00,WSW,256,1.0,2.0,98,0.00,,,0.00,160,Wunderground v.1.15,2013-08-23 12:08:00,
2013-08-23 08:14:00,71.8,71.2,30.00,WSW,254,0.0,2.0,98,0.00,,,0.00,195,Wunderground v.1.15,2013-08-23 12:14:00,
2013-08-23 08:20:00,72.0,71.1,30.01,West,261,1.0,1.0,97,0.00,,,0.00,192,Wunderground v.1.15,2013-08-23 12:20:00,
2013-08-23 08:26:00,72.1,71.2,30.01,WSW,256,2.0,2.0,97,0.00,,,0.00,220,Wunderground v.1.15,2013-08-23 12:26:00,
2013-08-23 08:32:00,72.8,71.6,30.00,NW,325,2.0,2.0,96,0.00,,,0.00,239,Wunderground v.1.15,2013-08-23 12:32:00,
2013-08-23 08:38:00,74.0,70.6,30.00,NW,311,1.0,3.0,89,0.00,,,0.00,257,Wunderground v.1.15,2013-08-23 12:38:00,
2013-08-23 08:44:00,75.3,70.8,30.00,NW,311,1.0,2.0,86,0.00,,,0.00,294,Wunderground v.1.15,2013-08-23 12:44:00,
2013-08-23 08:50:00,76.3,71.1,29.99,NNW,340,1.0,1.0,84,0.00,,,0.00,308,Wunderground v.1.15,2013-08-23 12:50:00,
2013-08-23 08:56:00,77.2,71.3,29.99,NNW,335,1.0,2.0,82,0.00,,,0.00,324,Wunderground v.1.15,2013-08-23 12:56:00,
2013-08-23 09:02:00,77.6,70.9,29.99,NNW,330,1.0,5.0,80,0.00,,,0.00,336,Wunderground v.1.15,2013-08-23 13:02:00,
2013-08-23 09:08:00,78.3,71.6,29.99,WSW,258,1.0,5.0,80,0.00,,,0.00,361,Wunderground v.1.15,2013-08-23 13:08:00,
2013-08-23 09:14:00,78.5,71.4,29.99,NNW,333,1.0,5.0,79,0.00,,,0.00,378,Wunderground v.1.15,2013-08-23 13:14:00,
2013-08-23 09:20:00,78.8,71.0,29.99,WSW,258,1.0,1.0,77,0.00,,,0.00,347,Wunderground v.1.15,2013-08-23 13:20:00,
2013-08-23 09:26:00,79.4,71.6,29.99,WSW,258,1.0,1.0,77,0.00,,,0.00,421,Wunderground v.1.15,2013-08-23 13:26:00,
2013-08-23 09:32:00,79.6,71.8,29.99,SW,233,1.0,1.0,77,0.00,,,0.00,421,Wunderground v.1.15,2013-08-23 13:32:00,
2013-08-23 09:38:00,80.1,70.3,29.99,NW,311,2.0,2.0,72,0.00,,,0.00,452,Wunderground v.1.15,2013-08-23 13:38:00,
2013-08-23 09:44:00,80.3,70.9,29.99,NW,319,2.0,3.0,73,0.00,,,0.00,473,Wunderground v.1.15,2013-08-23 13:44:00,
2013-08-23 09:50:00,80.9,72.2,29.99,SW,227,2.0,2.0,75,0.00,,,0.00,528,Wunderground v.1.15,2013-08-23 13:50:00,
2013-08-23 09:56:00,81.4,71.5,29.99,SW,227,1.0,2.0,72,0.00,,,0.00,591,Wunderground v.1.15,2013-08-23 13:56:00,
2013-08-23 10:02:00,81.2,71.3,29.99,NNW,346,1.0,5.0,72,0.00,,,0.00,287,Wunderground v.1.15,2013-08-23 14:02:00,
2013-08-23 10:08:00,81.1,71.6,29.99,NNW,339,1.0,5.0,73,0.00,,,0.00,301,Wunderground v.1.15,2013-08-23 14:08:00,
2013-08-23 10:14:00,81.2,71.3,29.99,NNW,339,1.0,2.0,72,0.00,,,0.00,354,Wunderground v.1.15,2013-08-23 14:14:00,
2013-08-23 10:20:00,81.8,72.3,29.99,NNW,339,1.0,2.0,73,0.00,,,0.00,531,Wunderground v.1.15,2013-08-23 14:20:00,
2013-08-23 10:26:00,82.8,72.4,29.99,NNW,339,1.0,1.0,71,0.00,,,0.00,697,Wunderground v.1.15,2013-08-23 14:26:00,
2013-08-23 10:32:00,84.1,72.8,29.99,ENE,59,1.0,2.0,69,0.00,,,0.00,788,Wunderground v.1.15,2013-08-23 14:32:00,
2013-08-23 10:38:00,84.3,72.6,29.99,NNE,24,1.0,5.0,68,0.00,,,0.00,788,Wunderground v.1.15,2013-08-23 14:38:00,
2013-08-23 10:44:00,84.1,71.1,29.99,NW,326,2.0,5.0,65,0.00,,,0.00,452,Wunderground v.1.15,2013-08-23 14:44:00,
2013-08-23 10:50:00,83.8,71.7,29.99,NW,304,2.0,5.0,67,0.00,,,0.00,396,Wunderground v.1.15,2013-08-23 14:50:00,
2013-08-23 10:56:00,84.0,71.4,29.99,NW,312,1.0,2.0,66,0.00,,,0.00,380,Wunderground v.1.15,2013-08-23 14:56:00,
2013-08-23 11:02:00,84.1,73.3,29.99,WNW,299,2.0,2.0,70,0.00,,,0.00,417,Wunderground v.1.15,2013-08-23 15:02:00,
2013-08-23 11:08:00,83.8,71.2,29.99,WSW,258,2.0,5.0,66,0.00,,,0.00,412,Wunderground v.1.15,2013-08-23 15:08:00,
2013-08-23 11:14:00,83.8,71.7,29.99,West,260,1.0,3.0,67,0.00,,,0.00,364,Wunderground v.1.15,2013-08-23 15:14:00,
2013-08-23 11:20:00,83.8,73.0,30.00,West,263,2.0,2.0,70,0.00,,,0.00,391,Wunderground v.1.15,2013-08-23 15:20:00,
2013-08-23 11:26:00,83.8,72.5,30.00,NW,318,3.0,5.0,69,0.00,,,0.00,415,Wunderground v.1.15,2013-08-23 15:26:00,
2013-08-23 11:31:00,84.0,71.9,30.00,NW,319,3.0,4.0,67,0.00,,,0.00,459,Wunderground v.1.15,2013-08-23 15:31:00,
2013-08-23 11:36:00,84.5,72.3,30.00,WNW,295,1.0,4.0,67,0.00,,,0.00,516,Wunderground v.1.15,2013-08-23 15:36:00,
2013-08-23 11:42:00,84.7,71.2,30.00,WNW,284,2.0,2.0,64,0.00,,,0.00,514,Wunderground v.1.15,2013-08-23 15:42:00,
2013-08-23 11:48:00,84.9,71.4,29.99,North,359,2.0,5.0,64,0.00,,,0.00,480,Wunderground v.1.15,2013-08-23 15:48:00,
2013-08-23 11:54:00,84.9,69.9,29.99,NW,313,3.0,3.0,61,0.00,,,0.00,491,Wunderground v.1.15,2013-08-23 15:54:00,
2013-08-23 12:00:00,84.9,70.9,29.99,WNW,289,2.0,2.0,63,0.00,,,0.00,505,Wunderground v.1.15,2013-08-23 16:00:00,
2013-08-23 12:06:00,85.3,71.3,29.99,West,265,2.0,5.0,63,0.00,,,0.00,505,Wunderground v.1.15,2013-08-23 16:06:00,
2013-08-23 12:12:00,85.9,72.8,29.99,NNW,335,2.0,2.0,65,0.00,,,0.00,644,Wunderground v.1.15,2013-08-23 16:12:00,
2013-08-23 12:18:00,85.9,71.8,29.98,West,268,1.0,2.0,63,0.00,,,0.00,403,Wunderground v.1.15,2013-08-23 16:18:00,
2013-08-23 12:24:00,85.1,69.2,29.98,NW,308,2.0,2.0,59,0.00,,,0.00,371,Wunderground v.1.15,2013-08-23 16:24:00,
2013-08-23 12:30:00,85.5,71.5,29.98,NW,320,2.0,2.0,63,0.00,,,0.00,371,Wunderground v.1.15,2013-08-23 16:30:00,
2013-08-23 12:36:00,86.3,72.2,29.98,West,270,2.0,4.0,63,0.00,,,0.00,829,Wunderground v.1.15,2013-08-23 16:36:00,
2013-08-23 12:42:00,86.3,73.6,29.98,NNW,330,3.0,5.0,66,0.00,,,0.00,836,Wunderground v.1.15,2013-08-23 16:42:00,
2013-08-23 12:48:00,85.7,71.7,29.97,NW,313,3.0,5.0,63,0.00,,,0.00,787,Wunderground v.1.15,2013-08-23 16:48:00,
2013-08-23 12:54:00,86.3,73.1,29.97,WNW,301,2.0,6.0,65,0.00,,,0.00,869,Wunderground v.1.15,2013-08-23 16:54:00,
2013-08-23 13:01:00,86.5,71.5,29.97,WSW,247,2.0,6.0,61,0.00,,,0.00,838,Wunderground v.1.15,2013-08-23 17:01:00,
2013-08-23 13:06:00,87.2,72.1,29.97,WNW,289,3.0,6.0,61,0.00,,,0.00,822,Wunderground v.1.15,2013-08-23 17:06:00,
2013-08-23 13:12:00,87.2,72.6,29.97,WNW,299,3.0,3.0,62,0.00,,,0.00,802,Wunderground v.1.15,2013-08-23 17:12:00,
2013-08-23 13:18:00,88.2,74.5,29.96,West,270,2.0,3.0,64,0.00,,,0.00,806,Wunderground v.1.15,2013-08-23 17:18:00,
2013-08-23 13:24:00,87.8,71.7,29.96,NNW,336,2.0,6.0,59,0.00,,,0.00,776,Wunderground v.1.15,2013-08-23 17:24:00,
2013-08-23 13:30:00,88.0,73.3,29.96,WNW,287,2.0,2.0,62,0.00,,,0.00,778,Wunderground v.1.15,2013-08-23 17:30:00,
2013-08-23 13:36:00,87.8,71.2,29.96,WSW,248,2.0,7.0,58,0.00,,,0.00,816,Wunderground v.1.15,2013-08-23 17:36:00,
2013-08-23 13:42:00,88.2,71.6,29.96,WNW,291,3.0,3.0,58,0.00,,,0.00,843,Wunderground v.1.15,2013-08-23 17:42:00,
2013-08-23 13:48:00,88.6,71.9,29.96,NW,315,2.0,3.0,58,0.00,,,0.00,750,Wunderground v.1.15,2013-08-23 17:48:00,
2013-08-23 13:54:00,88.6,71.9,29.96,NW,316,2.0,6.0,58,0.00,,,0.00,769,Wunderground v.1.15,2013-08-23 17:54:00,
2013-08-23 14:00:00,88.6,71.4,29.95,SW,233,2.0,2.0,57,0.00,,,0.00,776,Wunderground v.1.15,2013-08-23 18:00:00,
2013-08-23 14:06:00,88.8,74.1,29.95,West,267,2.0,3.0,62,0.00,,,0.00,750,Wunderground v.1.15,2013-08-23 18:06:00,
2013-08-23 14:12:00,89.3,74.1,29.95,West,265,3.0,3.0,61,0.00,,,0.00,781,Wunderground v.1.15,2013-08-23 18:12:00,
2013-08-23 14:18:00,88.8,71.1,29.94,North,350,3.0,3.0,56,0.00,,,0.00,764,Wunderground v.1.15,2013-08-23 18:18:00,
2013-08-23 14:24:00,88.6,69.8,29.94,SSW,205,3.0,5.0,54,0.00,,,0.00,354,Wunderground v.1.15,2013-08-23 18:24:00,
2013-08-23 14:30:00,88.4,71.2,29.94,NW,323,4.0,4.0,57,0.00,,,0.00,714,Wunderground v.1.15,2013-08-23 18:30:00,
2013-08-23 14:36:00,88.4,69.6,29.94,NNW,339,4.0,6.0,54,0.00,,,0.00,746,Wunderground v.1.15,2013-08-23 18:36:00,
2013-08-23 14:42:00,89.0,72.3,29.94,WNW,302,4.0,4.0,58,0.00,,,0.00,794,Wunderground v.1.15,2013-08-23 18:42:00,
2013-08-23 14:48:00,89.3,70.5,29.93,NNE,32,3.0,5.0,54,0.00,,,0.00,655,Wunderground v.1.15,2013-08-23 18:48:00,
2013-08-23 14:54:00,89.5,69.5,29.93,WNW,288,3.0,3.0,52,0.00,,,0.00,760,Wunderground v.1.15,2013-08-23 18:54:00,
2013-08-23 15:00:00,89.5,71.7,29.93,WNW,282,3.0,3.0,56,0.00,,,0.00,544,Wunderground v.1.15,2013-08-23 19:00:00,
2013-08-23 15:06:00,89.3,72.1,29.93,NW,322,2.0,5.0,57,0.00,,,0.00,303,Wunderground v.1.15,2013-08-23 19:06:00,
2013-08-23 15:12:00,89.5,71.7,29.93,NNW,330,2.0,5.0,56,0.00,,,0.00,377,Wunderground v.1.15,2013-08-23 19:12:00,
2013-08-23 15:18:00,90.3,71.9,29.92,West,263,3.0,5.0,55,0.00,,,0.00,834,Wunderground v.1.15,2013-08-23 19:18:00,
2013-08-23 15:24:00,90.3,69.1,29.92,North,0,3.0,7.0,50,0.00,,,0.00,809,Wunderground v.1.15,2013-08-23 19:24:00,
2013-08-23 15:30:00,88.8,68.9,29.91,NW,323,6.0,6.0,52,0.00,,,0.00,264,Wunderground v.1.15,2013-08-23 19:30:00,
2013-08-23 15:36:00,88.2,70.5,29.91,NW,325,7.0,12.0,56,0.00,,,0.00,769,Wunderground v.1.15,2013-08-23 19:36:00,
2013-08-23 15:42:00,88.4,72.2,29.91,NW,325,7.0,7.0,59,0.00,,,0.00,753,Wunderground v.1.15,2013-08-23 19:42:00,
2013-08-23 15:48:00,87.2,71.1,29.91,NW,312,6.0,8.0,59,0.00,,,0.00,253,Wunderground v.1.15,2013-08-23 19:48:00,
2013-08-23 15:54:00,86.5,70.0,29.91,NW,326,5.0,5.0,58,0.00,,,0.00,195,Wunderground v.1.15,2013-08-23 19:54:00,
2013-08-23 16:00:00,86.3,69.8,29.91,NW,309,5.0,5.0,58,0.00,,,0.00,238,Wunderground v.1.15,2013-08-23 20:00:00,
2013-08-23 16:06:00,86.5,71.5,29.91,North,0,4.0,5.0,61,0.00,,,0.00,282,Wunderground v.1.15,2013-08-23 20:06:00,
2013-08-23 16:12:00,87.4,72.8,29.91,NNW,344,4.0,5.0,62,0.00,,,0.00,561,Wunderground v.1.15,2013-08-23 20:12:00,
2013-08-23 16:18:00,87.0,71.4,29.91,WNW,295,4.0,7.0,60,0.00,,,0.00,589,Wunderground v.1.15,2013-08-23 20:18:00,
2013-08-23 16:24:00,87.4,71.8,29.91,NW,322,5.0,10.0,60,0.00,,,0.00,524,Wunderground v.1.15,2013-08-23 20:24:00,
2013-08-23 16:30:00,87.4,71.8,29.91,NNW,344,6.0,6.0,60,0.00,,,0.00,496,Wunderground v.1.15,2013-08-23 20:30:00,
2013-08-23 16:36:00,87.6,72.5,29.91,NW,311,5.0,7.0,61,0.00,,,0.00,452,Wunderground v.1.15,2013-08-23 20:36:00,
2013-08-23 16:42:00,87.4,71.8,29.91,NW,305,5.0,5.0,60,0.00,,,0.00,238,Wunderground v.1.15,2013-08-23 20:42:00,
2013-08-23 16:48:00,86.7,71.6,29.91,North,359,5.0,7.0,61,0.00,,,0.00,289,Wunderground v.1.15,2013-08-23 20:48:00,
2013-08-23 16:54:00,87.0,72.9,29.91,North,356,5.0,7.0,63,0.00,,,0.00,274,Wunderground v.1.15,2013-08-23 20:54:00,
2013-08-23 17:00:00,87.6,73.4,29.90,NNW,342,3.0,3.0,63,0.00,,,0.00,392,Wunderground v.1.15,2013-08-23 21:00:00,
2013-08-23 17:06:00,87.6,73.0,29.90,North,3,3.0,7.0,62,0.00,,,0.00,301,Wunderground v.1.15,2013-08-23 21:06:00,
2013-08-23 17:12:00,87.0,72.9,29.90,NNW,330,5.0,7.0,63,0.00,,,0.00,139,Wunderground v.1.15,2013-08-23 21:12:00,
2013-08-23 17:18:00,86.5,71.9,29.90,NNW,328,4.0,7.0,62,0.00,,,0.00,135,Wunderground v.1.15,2013-08-23 21:18:00,
2013-08-23 17:24:00,86.1,72.5,29.90,North,359,5.0,5.0,64,0.00,,,0.00,135,Wunderground v.1.15,2013-08-23 21:24:00,
2013-08-23 17:30:00,85.9,72.3,29.91,North,350,4.0,5.0,64,0.00,,,0.00,143,Wunderground v.1.15,2013-08-23 21:30:00,
2013-08-23 17:36:00,85.9,72.3,29.91,North,356,4.0,6.0,64,0.00,,,0.00,218,Wunderground v.1.15,2013-08-23 21:36:00,
2013-08-23 17:42:00,85.9,71.8,29.91,NW,323,4.0,4.0,63,0.00,,,0.00,172,Wunderground v.1.15,2013-08-23 21:42:00,
2013-08-23 17:48:00,85.9,71.8,29.91,NNW,333,4.0,5.0,63,0.00,,,0.00,171,Wunderground v.1.15,2013-08-23 21:48:00,
2013-08-23 17:54:00,85.9,71.4,29.91,North,352,4.0,7.0,62,0.00,,,0.00,144,Wunderground v.1.15,2013-08-23 21:54:00,
2013-08-23 18:00:00,85.7,71.2,29.92,NW,325,4.0,5.0,62,0.00,,,0.00,127,Wunderground v.1.15,2013-08-23 22:00:00,
2013-08-23 18:06:00,85.5,71.5,29.92,NW,308,3.0,7.0,63,0.00,,,0.00,158,Wunderground v.1.15,2013-08-23 22:06:00,
2013-08-23 18:12:00,85.3,70.3,29.92,NW,316,3.0,5.0,61,0.00,,,0.00,120,Wunderground v.1.15,2013-08-23 22:12:00,
2013-08-23 18:18:00,85.1,71.5,29.93,NW,308,3.0,5.0,64,0.00,,,0.00,102,Wunderground v.1.15,2013-08-23 22:18:00,
2013-08-23 18:24:00,84.9,70.4,29.93,NW,306,3.0,3.0,62,0.00,,,0.00,107,Wunderground v.1.15,2013-08-23 22:24:00,
2013-08-23 18:30:00,84.9,71.4,29.93,North,359,3.0,4.0,64,0.00,,,0.00,127,Wunderground v.1.15,2013-08-23 22:30:00,
2013-08-23 18:36:00,84.9,70.9,29.93,NNW,337,3.0,5.0,63,0.00,,,0.00,139,Wunderground v.1.15,2013-08-23 22:36:00,
2013-08-23 18:42:00,85.1,71.1,29.93,North,8,3.0,5.0,63,0.00,,,0.00,100,Wunderground v.1.15,2013-08-23 22:42:00,
2013-08-23 18:48:00,85.1,71.1,29.93,NNW,340,3.0,5.0,63,0.00,,,0.00,100,Wunderground v.1.15,2013-08-23 22:48:00,
2013-08-23 18:54:00,84.9,71.4,29.93,North,352,5.0,6.0,64,0.00,,,0.00,116,Wunderground v.1.15,2013-08-23 22:54:00,
2013-08-23 19:00:00,84.5,71.9,29.94,North,0,5.0,5.0,66,0.00,,,0.00,69,Wunderground v.1.15,2013-08-23 23:00:00,
2013-08-23 19:06:00,84.1,72.0,29.94,NNW,346,4.0,7.0,67,0.00,,,0.00,53,Wunderground v.1.15,2013-08-23 23:06:00,
2013-08-23 19:12:00,84.0,72.3,29.94,North,359,5.0,7.0,68,0.00,,,0.00,39,Wunderground v.1.15,2013-08-23 23:12:00,
2013-08-23 19:18:00,83.6,72.8,29.95,NNW,330,6.0,8.0,70,0.00,,,0.00,33,Wunderground v.1.15,2013-08-23 23:18:00,
2013-08-23 19:24:00,83.2,72.4,29.95,NNW,330,6.0,6.0,70,0.00,,,0.00,30,Wunderground v.1.15,2013-08-23 23:24:00,
2013-08-23 19:30:00,83.0,72.6,29.95,North,350,5.0,5.0,71,0.00,,,0.00,19,Wunderground v.1.15,2013-08-23 23:30:00,
2013-08-23 19:36:00,82.6,72.2,29.95,North,359,4.0,5.0,71,0.00,,,0.00,14,Wunderground v.1.15,2013-08-23 23:36:00,
2013-08-23 19:42:00,82.4,72.5,29.95,North,353,3.0,6.0,72,0.00,,,0.00,11,Wunderground v.1.15,2013-08-23 23:42:00,
2013-08-23 19:48:00,82.0,72.1,29.96,North,349,4.0,6.0,72,0.00,,,0.00,5,Wunderground v.1.15,2013-08-23 23:48:00,
2013-08-23 19:54:00,81.8,71.9,29.96,NNW,332,6.0,7.0,72,0.00,,,0.00,0,Wunderground v.1.15,2013-08-23 23:54:00,
2013-08-23 20:00:00,81.2,71.7,29.97,NNW,346,9.0,11.0,73,0.00,,,0.00,0,Wunderground v.1.15,2013-08-24 00:00:00,
2013-08-23 20:06:00,80.7,71.2,29.97,North,0,9.0,12.0,73,0.00,,,0.00,0,Wunderground v.1.15,2013-08-24 00:06:00,
2013-08-23 20:12:00,79.9,70.9,29.97,NNE,25,9.0,13.0,74,0.00,,,0.00,0,Wunderground v.1.15,2013-08-24 00:12:00,
2013-08-23 20:18:00,79.6,71.4,29.97,North,0,8.0,13.0,76,0.00,,,0.00,0,Wunderground v.1.15,2013-08-24 00:18:00,
2013-08-23 20:24:00,79.0,71.2,29.97,NNE,30,8.0,11.0,77,0.00,,,0.00,0,Wunderground v.1.15,2013-08-24 00:24:00,
2013-08-23 20:30:00,78.6,70.8,29.98,NNE,25,8.0,8.0,77,0.00,,,0.00,0,Wunderground v.1.15,2013-08-24 00:30:00,
2013-08-23 20:36:00,78.3,70.9,29.98,North,10,6.0,8.0,78,0.00,,,0.00,0,Wunderground v.1.15,2013-08-24 00:36:00,
2013-08-23 20:42:00,77.9,70.5,29.98,North,6,6.0,6.0,78,0.00,,,0.00,0,Wunderground v.1.15,2013-08-24 00:42:00,
2013-08-23 20:48:00,77.6,70.6,30.00,North,1,7.0,12.0,79,0.00,,,0.00,0,Wunderground v.1.15,2013-08-24 00:48:00,
2013-08-23 20:54:00,77.0,70.4,30.00,North,0,8.0,13.0,80,0.00,,,0.00,0,Wunderground v.1.15,2013-08-24 00:54:00,
2013-08-23 21:00:00,76.7,70.4,30.00,NNE,30,9.0,11.0,81,0.00,,,0.00,0,Wunderground v.1.15,2013-08-24 01:00:00,
2013-08-23 21:06:00,76.3,70.4,30.00,North,10,10.0,14.0,82,0.00,,,0.00,0,Wunderground v.1.15,2013-08-24 01:06:00,
2013-08-23 21:12:00,76.0,70.5,30.00,NNE,16,8.0,9.0,83,0.00,,,0.00,0,Wunderground v.1.15,2013-08-24 01:12:00,
2013-08-23 21:18:00,75.6,70.4,30.02,North,0,8.0,11.0,84,0.00,,,0.00,0,Wunderground v.1.15,2013-08-24 01:18:00,
2013-08-23 21:24:00,75.4,70.2,30.02,NNE,13,8.0,8.0,84,0.00,,,0.00,0,Wunderground v.1.15,2013-08-24 01:24:00,
2013-08-23 21:30:00,75.3,70.5,30.02,NE,41,6.0,6.0,85,0.00,,,0.00,0,Wunderground v.1.15,2013-08-24 01:30:00,
2013-08-23 21:36:00,75.3,70.8,30.02,NNE,32,6.0,10.0,86,0.00,,,0.00,0,Wunderground v.1.15,2013-08-24 01:36:00,
2013-08-23 21:42:00,75.1,70.6,30.02,North,1,7.0,9.0,86,0.00,,,0.00,0,Wunderground v.1.15,2013-08-24 01:42:00,
2013-08-23 21:48:00,75.1,71.0,30.03,NNE,24,7.0,9.0,87,0.00,,,0.00,0,Wunderground v.1.15,2013-08-24 01:48:00,
2013-08-23 21:54:00,75.1,71.0,30.03,NE,51,6.0,10.0,87,0.00,,,0.00,0,Wunderground v.1.15,2013-08-24 01:54:00,
2013-08-23 22:00:00,74.9,70.8,30.03,NNE,31,6.0,6.0,87,0.00,,,0.00,0,Wunderground v.1.15,2013-08-24 02:00:00,
2013-08-23 22:06:00,74.9,70.8,30.03,NNE,17,5.0,7.0,87,0.00,,,0.00,0,Wunderground v.1.15,2013-08-24 02:06:00,
2013-08-23 22:12:00,74.9,70.8,30.03,NW,312,7.0,7.0,87,0.00,,,0.00,0,Wunderground v.1.15,2013-08-24 02:12:00,
2013-08-23 22:18:00,74.9,71.1,30.03,NE,41,6.0,7.0,88,0.00,,,0.00,0,Wunderground v.1.15,2013-08-24 02:18:00,
2013-08-23 22:24:00,74.7,70.9,30.03,NE,47,5.0,11.0,88,0.00,,,0.00,0,Wunderground v.1.15,2013-08-24 02:24:00,
2013-08-23 22:30:00,74.7,70.9,30.03,NNE,28,8.0,11.0,88,0.00,,,0.00,0,Wunderground v.1.15,2013-08-24 02:30:00,
2013-08-23 22:36:00,74.7,70.9,30.03,NE,52,8.0,13.0,88,0.00,,,0.00,0,Wunderground v.1.15,2013-08-24 02:36:00,
2013-08-23 22:42:00,74.6,70.8,30.03,North,0,8.0,9.0,88,0.00,,,0.00,0,Wunderground v.1.15,2013-08-24 02:42:00,
2013-08-23 22:48:00,74.2,70.7,30.04,NNE,14,9.0,10.0,89,0.00,,,0.00,0,Wunderground v.1.15,2013-08-24 02:48:00,
2013-08-23 22:54:00,73.9,70.8,30.04,NE,41,8.0,10.0,90,0.00,,,0.00,0,Wunderground v.1.15,2013-08-24 02:54:00,
2013-08-23 23:00:00,73.7,70.6,30.05,NE,34,7.0,7.0,90,0.00,,,0.00,0,Wunderground v.1.15,2013-08-24 03:00:00,
2013-08-23 23:06:00,73.5,70.4,30.05,NNE,23,7.0,8.0,90,0.00,,,0.00,0,Wunderground v.1.15,2013-08-24 03:06:00,
2013-08-23 23:12:00,73.3,70.5,30.05,North,7,7.0,7.0,91,0.00,,,0.00,0,Wunderground v.1.15,2013-08-24 03:12:00,
2013-08-23 23:18:00,73.2,70.1,30.05,North,359,6.0,7.0,90,0.00,,,0.00,0,Wunderground v.1.15,2013-08-24 03:18:00,
2013-08-23 23:24:00,72.8,69.7,30.05,NNE,18,6.0,8.0,90,0.00,,,0.00,0,Wunderground v.1.15,2013-08-24 03:24:00,
2013-08-23 23:30:00,72.7,69.6,30.05,North,359,7.0,9.0,90,0.00,,,0.00,0,Wunderground v.1.15,2013-08-24 03:30:00,
2013-08-23 23:36:00,72.3,69.2,30.05,NE,34,7.0,10.0,90,0.00,,,0.00,0,Wunderground v.1.15,2013-08-24 03:36:00,
2013-08-23 23:42:00,71.8,68.7,30.05,North,0,9.0,9.0,90,0.00,,,0.00,0,Wunderground v.1.15,2013-08-24 03:42:00,
2013-08-23 23:48:00,71.6,68.8,30.05,North,4,6.0,9.0,91,0.00,,,0.00,0,Wunderground v.1.15,2013-08-24 03:48:00,
2013-08-23 23:54:00,71.5,68.7,30.05,North,359,5.0,7.0,91,0.00,,,0.00,0,Wunderground v.1.15,2013-08-24 03:54:00,